createdAt,value
2018-07-01T00:00:58.460Z,1.80
2018-07-01T00:01:58.481Z,1.90
2018-07-01T00:02:58.476Z,1.80
2018-07-01T00:03:58.462Z,1.50
2018-07-01T00:04:58.491Z,1.70
2018-07-01T00:05:58.478Z,1.60
2018-07-01T00:06:58.463Z,1.80
2018-07-01T00:07:58.491Z,1.70
2018-07-01T00:08:58.498Z,1.60
2018-07-01T00:09:58.497Z,1.80
2018-07-01T00:10:58.477Z,1.60
2018-07-01T00:11:58.488Z,1.70
2018-07-01T00:12:58.492Z,1.70
2018-07-01T00:13:58.531Z,1.60
2018-07-01T00:14:58.663Z,1.80
2018-07-01T00:15:58.529Z,1.80
2018-07-01T00:16:58.507Z,1.80
2018-07-01T00:17:58.530Z,1.60
2018-07-01T00:18:58.511Z,1.70
2018-07-01T00:19:58.548Z,1.80
2018-07-01T00:20:58.534Z,1.70
2018-07-01T00:21:58.549Z,1.60
2018-07-01T00:22:58.519Z,1.50
2018-07-01T00:23:58.526Z,1.60
2018-07-01T00:24:58.533Z,1.50
2018-07-01T00:25:58.537Z,1.80
2018-07-01T00:26:58.525Z,1.60
2018-07-01T00:27:58.630Z,1.80
2018-07-01T00:28:58.535Z,1.70
2018-07-01T00:29:58.541Z,1.70
2018-07-01T00:30:58.546Z,1.70
2018-07-01T00:31:58.544Z,1.60
2018-07-01T00:32:58.544Z,1.60
2018-07-01T00:33:58.546Z,1.50
2018-07-01T00:34:58.554Z,1.50
2018-07-01T00:35:58.564Z,1.40
2018-07-01T00:36:58.557Z,1.60
2018-07-01T00:37:59.507Z,1.60
2018-07-01T00:38:58.580Z,2.00
2018-07-01T00:39:58.567Z,1.60
2018-07-01T00:40:58.570Z,1.70
2018-07-01T00:41:59.503Z,1.60
2018-07-01T00:42:59.636Z,1.60
2018-07-01T00:43:58.573Z,1.70
2018-07-01T00:44:58.579Z,1.80
2018-07-01T00:45:58.601Z,1.70
2018-07-01T00:46:58.575Z,1.70
2018-07-01T00:47:58.619Z,1.90
2018-07-01T00:48:58.588Z,1.70
2018-07-01T00:49:58.595Z,1.70
2018-07-01T00:50:58.592Z,2.20
2018-07-01T00:51:58.596Z,2.00
2018-07-01T00:52:58.635Z,1.60
2018-07-01T00:53:58.620Z,1.40
2018-07-01T00:54:58.609Z,1.70
2018-07-01T00:55:58.732Z,1.70
2018-07-01T00:56:58.635Z,1.50
2018-07-01T00:57:58.625Z,1.80
2018-07-01T00:58:58.627Z,1.80
2018-07-01T00:59:58.622Z,1.40
2018-07-01T01:00:58.629Z,1.50
2018-07-01T01:01:58.628Z,1.60
2018-07-01T01:02:58.640Z,1.50
2018-07-01T01:03:58.631Z,1.60
2018-07-01T01:04:58.637Z,1.60
2018-07-01T01:05:58.633Z,1.60
2018-07-01T01:06:58.644Z,1.50
2018-07-01T01:07:58.651Z,1.40
2018-07-01T01:08:58.653Z,1.70
2018-07-01T01:09:58.672Z,1.60
2018-07-01T01:10:58.644Z,1.50
2018-07-01T01:11:58.659Z,1.40
2018-07-01T01:12:58.672Z,1.50
2018-07-01T01:13:58.668Z,1.50
2018-07-01T01:14:58.674Z,1.80
2018-07-01T01:15:58.678Z,1.60
2018-07-01T01:16:58.706Z,1.70
2018-07-01T01:17:58.678Z,1.40
2018-07-01T01:18:58.677Z,1.50
2018-07-01T01:19:58.713Z,1.60
2018-07-01T01:20:58.692Z,1.50
2018-07-01T01:21:58.704Z,1.60
2018-07-01T01:22:58.699Z,1.90
2018-07-01T01:23:58.692Z,1.50
2018-07-01T01:24:58.722Z,1.50
2018-07-01T01:25:58.691Z,1.60
2018-07-01T01:26:58.705Z,1.30
2018-07-01T01:27:58.728Z,1.40
2018-07-01T01:28:58.697Z,1.60
2018-07-01T01:29:58.715Z,1.50
2018-07-01T01:30:58.724Z,1.40
2018-07-01T01:31:58.708Z,1.60
2018-07-01T01:32:58.739Z,1.60
2018-07-01T01:33:58.722Z,1.50
2018-07-01T01:34:58.724Z,1.60
2018-07-01T01:35:58.741Z,1.70
2018-07-01T01:36:59.526Z,1.60
2018-07-01T01:37:58.729Z,1.50
2018-07-01T01:38:58.752Z,1.50
2018-07-01T01:39:58.845Z,1.60
2018-07-01T01:40:58.747Z,1.60
2018-07-01T01:41:58.774Z,1.50
2018-07-01T01:42:59.531Z,1.60
2018-07-01T01:43:58.751Z,1.50
2018-07-01T01:44:58.765Z,1.60
2018-07-01T01:45:58.752Z,1.50
2018-07-01T01:46:58.752Z,1.80
2018-07-01T01:47:58.773Z,1.60
2018-07-01T01:48:58.773Z,1.80
2018-07-01T01:49:58.752Z,1.60
2018-07-01T01:50:58.789Z,1.70
2018-07-01T01:51:58.768Z,1.50
2018-07-01T01:52:58.790Z,1.50
2018-07-01T01:53:58.784Z,1.60
2018-07-01T01:54:58.767Z,1.80
2018-07-01T01:55:58.828Z,1.50
2018-07-01T01:56:58.805Z,1.50
2018-07-01T01:57:58.794Z,1.50
2018-07-01T01:58:58.798Z,1.80
2018-07-01T01:59:58.793Z,1.60
2018-07-01T02:00:58.851Z,1.60
2018-07-01T02:01:58.800Z,1.80
2018-07-01T02:02:58.909Z,1.60
2018-07-01T02:03:58.808Z,1.60
2018-07-01T02:04:58.803Z,1.60
2018-07-01T02:05:58.809Z,2.20
2018-07-01T02:06:58.817Z,1.60
2018-07-01T02:07:58.815Z,1.60
2018-07-01T02:08:58.813Z,1.80
2018-07-01T02:09:58.974Z,1.80
2018-07-01T02:10:58.812Z,1.70
2018-07-01T02:11:58.817Z,1.70
2018-07-01T02:12:58.823Z,1.70
2018-07-01T02:13:58.868Z,1.60
2018-07-01T02:14:58.847Z,1.70
2018-07-01T02:15:58.835Z,1.60
2018-07-01T02:16:58.842Z,1.40
2018-07-01T02:17:58.841Z,1.60
2018-07-01T02:18:58.867Z,1.70
2018-07-01T02:19:58.849Z,1.50
2018-07-01T02:20:58.871Z,1.40
2018-07-01T02:21:58.875Z,1.60
2018-07-01T02:22:58.883Z,1.60
2018-07-01T02:23:58.868Z,1.40
2018-07-01T02:24:58.861Z,1.40
2018-07-01T02:25:58.852Z,1.30
2018-07-01T02:26:58.890Z,1.50
2018-07-01T02:27:58.889Z,1.40
2018-07-01T02:28:58.896Z,1.60
2018-07-01T02:29:58.876Z,1.60
2018-07-01T02:30:58.876Z,1.60
2018-07-01T02:31:58.884Z,1.60
2018-07-01T02:32:58.875Z,1.40
2018-07-01T02:33:58.885Z,1.30
2018-07-01T02:34:58.888Z,1.70
2018-07-01T02:35:58.884Z,1.40
2018-07-01T02:36:58.904Z,1.50
2018-07-01T02:37:58.890Z,1.60
2018-07-01T02:38:58.896Z,1.50
2018-07-01T02:39:58.895Z,1.50
2018-07-01T02:40:59.022Z,1.50
2018-07-01T02:41:58.909Z,1.60
2018-07-01T02:42:58.920Z,1.60
2018-07-01T02:43:58.922Z,1.60
2018-07-01T02:44:58.941Z,1.60
2018-07-01T02:45:58.919Z,1.70
2018-07-01T02:46:58.946Z,1.40
2018-07-01T02:47:58.967Z,1.70
2018-07-01T02:48:58.929Z,1.60
2018-07-01T02:49:58.921Z,1.60
2018-07-01T02:50:58.951Z,1.30
2018-07-01T02:51:58.961Z,1.50
2018-07-01T02:52:58.937Z,1.60
2018-07-01T02:53:58.986Z,1.50
2018-07-01T02:54:58.954Z,1.50
2018-07-01T02:55:58.944Z,1.60
2018-07-01T02:56:58.972Z,1.80
2018-07-01T02:57:58.979Z,1.70
2018-07-01T02:58:58.965Z,1.40
2018-07-01T02:59:58.957Z,1.20
2018-07-01T03:00:58.951Z,1.70
2018-07-01T03:01:58.970Z,1.70
2018-07-01T03:02:58.977Z,1.70
2018-07-01T03:03:58.970Z,1.50
2018-07-01T03:04:58.989Z,1.40
2018-07-01T03:05:58.980Z,1.50
2018-07-01T03:06:59.030Z,1.70
2018-07-01T03:07:58.991Z,1.90
2018-07-01T03:08:59.005Z,1.60
2018-07-01T03:09:58.982Z,1.60
2018-07-01T03:10:59.014Z,1.40
2018-07-01T03:11:59.004Z,1.50
2018-07-01T03:12:58.975Z,1.70
2018-07-01T03:13:58.983Z,1.40
2018-07-01T03:14:58.987Z,1.60
2018-07-01T03:15:58.996Z,1.30
2018-07-01T03:16:59.559Z,1.60
2018-07-01T03:17:59.008Z,1.70
2018-07-01T03:18:59.012Z,1.60
2018-07-01T03:19:59.041Z,1.60
2018-07-01T03:20:59.009Z,1.50
2018-07-01T03:21:59.013Z,1.70
2018-07-01T03:22:59.006Z,1.50
2018-07-01T03:23:59.031Z,1.50
2018-07-01T03:24:59.040Z,1.40
2018-07-01T03:25:59.022Z,1.50
2018-07-01T03:26:59.024Z,1.40
2018-07-01T03:27:59.033Z,1.50
2018-07-01T03:28:59.031Z,1.30
2018-07-01T03:29:59.053Z,1.50
2018-07-01T03:30:59.035Z,1.40
2018-07-01T03:31:59.044Z,1.50
2018-07-01T03:32:59.051Z,1.80
2018-07-01T03:33:59.039Z,2.00
2018-07-01T03:34:59.044Z,1.70
2018-07-01T03:35:59.040Z,1.60
2018-07-01T03:36:59.046Z,1.70
2018-07-01T03:37:59.046Z,1.50
2018-07-01T03:38:59.079Z,1.50
2018-07-01T03:39:59.062Z,1.60
2018-07-01T03:40:59.076Z,1.50
2018-07-01T03:41:59.074Z,1.60
2018-07-01T03:42:59.063Z,1.40
2018-07-01T03:43:59.065Z,1.70
2018-07-01T03:44:59.126Z,1.50
2018-07-01T03:45:59.113Z,1.50
2018-07-01T03:46:59.078Z,1.70
2018-07-01T03:47:59.572Z,1.70
2018-07-01T03:48:59.137Z,1.50
2018-07-01T03:49:59.085Z,1.60
2018-07-01T03:50:59.096Z,1.40
2018-07-01T03:51:59.092Z,1.50
2018-07-01T03:52:59.092Z,1.50
2018-07-01T03:53:59.110Z,1.80
2018-07-01T03:54:59.102Z,1.40
2018-07-01T03:55:59.094Z,1.60
2018-07-01T03:56:59.137Z,1.70
2018-07-01T03:57:59.578Z,1.40
2018-07-01T03:58:59.139Z,1.40
2018-07-01T03:59:59.144Z,1.80
2018-07-01T04:00:59.112Z,1.30
2018-07-01T04:01:59.113Z,1.50
2018-07-01T04:02:59.112Z,1.50
2018-07-01T04:03:59.121Z,1.60
2018-07-01T04:04:59.117Z,1.50
2018-07-01T04:05:59.150Z,1.50
2018-07-01T04:06:59.131Z,1.70
2018-07-01T04:07:59.123Z,1.40
2018-07-01T04:08:59.139Z,1.60
2018-07-01T04:09:59.133Z,1.50
2018-07-01T04:10:59.191Z,1.80
2018-07-01T04:11:59.149Z,1.60
2018-07-01T04:12:59.142Z,1.50
2018-07-01T04:13:59.141Z,1.60
2018-07-01T04:14:59.153Z,1.40
2018-07-01T04:15:59.142Z,1.40
2018-07-01T04:16:59.154Z,1.70
2018-07-01T04:17:59.178Z,1.70
2018-07-01T04:18:59.175Z,1.50
2018-07-01T04:19:59.189Z,1.70
2018-07-01T04:20:59.205Z,1.60
2018-07-01T04:21:59.165Z,1.40
2018-07-01T04:22:59.165Z,1.50
2018-07-01T04:23:59.178Z,1.50
2018-07-01T04:24:59.168Z,1.50
2018-07-01T04:25:59.175Z,1.70
2018-07-01T04:26:59.178Z,1.60
2018-07-01T04:27:59.178Z,1.80
2018-07-01T04:29:02.181Z,1.40
2018-07-01T04:29:59.176Z,1.70
2018-07-01T04:30:59.239Z,1.90
2018-07-01T04:31:59.192Z,1.70
2018-07-01T04:32:59.224Z,1.40
2018-07-01T04:33:59.209Z,1.60
2018-07-01T04:34:59.217Z,1.60
2018-07-01T04:35:59.216Z,1.40
2018-07-01T04:36:59.217Z,1.40
2018-07-01T04:37:59.200Z,1.60
2018-07-01T04:38:59.275Z,1.60
2018-07-01T04:39:59.208Z,1.40
2018-07-01T04:40:59.215Z,1.60
2018-07-01T04:41:59.212Z,1.40
2018-07-01T04:42:59.223Z,1.60
2018-07-01T04:43:59.221Z,1.50
2018-07-01T04:44:59.242Z,1.50
2018-07-01T04:45:59.264Z,1.50
2018-07-01T04:46:59.226Z,1.50
2018-07-01T04:47:59.237Z,1.60
2018-07-01T04:48:59.235Z,1.50
2018-07-01T04:49:59.239Z,1.60
2018-07-01T04:50:59.247Z,1.60
2018-07-01T04:51:59.353Z,1.70
2018-07-01T04:52:59.257Z,1.80
2018-07-01T04:53:59.244Z,1.70
2018-07-01T04:54:59.278Z,1.50
2018-07-01T04:55:59.258Z,1.40
2018-07-01T04:56:59.256Z,1.50
2018-07-01T04:57:59.257Z,1.70
2018-07-01T04:58:59.269Z,1.40
2018-07-01T04:59:59.276Z,1.50
2018-07-01T05:00:59.259Z,1.60
2018-07-01T05:01:59.317Z,1.50
2018-07-01T05:02:59.275Z,1.50
2018-07-01T05:03:59.265Z,1.40
2018-07-01T05:04:59.381Z,1.50
2018-07-01T05:05:59.281Z,1.40
2018-07-01T05:06:59.288Z,1.60
2018-07-01T05:07:59.339Z,1.40
2018-07-01T05:08:59.277Z,1.70
2018-07-01T05:09:59.305Z,1.40
2018-07-01T05:10:59.296Z,1.50
2018-07-01T05:11:59.298Z,1.60
2018-07-01T05:12:59.302Z,1.40
2018-07-01T05:13:59.311Z,1.40
2018-07-01T05:14:59.292Z,1.60
2018-07-01T05:15:59.330Z,1.40
2018-07-01T05:16:59.324Z,1.40
2018-07-01T05:17:59.310Z,1.60
2018-07-01T05:18:59.330Z,1.50
2018-07-01T05:19:59.314Z,1.40
2018-07-01T05:20:59.331Z,1.30
2018-07-01T05:21:59.332Z,1.50
2018-07-01T05:22:59.364Z,1.40
2018-07-01T05:23:59.362Z,1.60
2018-07-01T05:24:59.321Z,1.40
2018-07-01T05:25:59.327Z,1.40
2018-07-01T05:26:59.338Z,1.40
2018-07-01T05:27:59.352Z,1.40
2018-07-01T05:28:59.352Z,1.60
2018-07-01T05:29:59.351Z,1.40
2018-07-01T05:30:59.360Z,1.50
2018-07-01T05:31:59.366Z,1.30
2018-07-01T05:32:59.473Z,1.30
2018-07-01T05:33:59.362Z,1.40
2018-07-01T05:34:59.366Z,1.40
2018-07-01T05:35:59.437Z,1.50
2018-07-01T05:36:59.384Z,1.40
2018-07-01T05:37:59.395Z,1.60
2018-07-01T05:38:59.383Z,1.40
2018-07-01T05:39:59.384Z,1.30
2018-07-01T05:40:59.389Z,1.50
2018-07-01T05:41:59.419Z,1.60
2018-07-01T05:42:59.444Z,1.30
2018-07-01T05:43:59.426Z,1.40
2018-07-01T05:44:59.426Z,1.40
2018-07-01T05:45:59.444Z,1.50
2018-07-01T05:46:59.449Z,1.30
2018-07-01T05:47:59.447Z,1.50
2018-07-01T05:48:59.448Z,1.50
2018-07-01T05:49:59.440Z,1.40
2018-07-01T05:50:59.471Z,1.30
2018-07-01T05:51:59.480Z,1.50
2018-07-01T05:52:59.472Z,1.40
2018-07-01T05:53:59.472Z,1.50
2018-07-01T05:54:59.480Z,1.20
2018-07-01T05:56:00.133Z,1.30
2018-07-01T05:56:59.520Z,1.40
2018-07-01T05:57:59.487Z,1.50
2018-07-01T05:58:59.519Z,1.40
2018-07-01T05:59:59.539Z,1.40
2018-07-01T06:00:59.551Z,1.30
2018-07-01T06:01:59.524Z,1.50
2018-07-01T06:02:59.562Z,1.30
2018-07-01T06:03:59.551Z,1.20
2018-07-01T06:04:59.560Z,1.30
2018-07-01T06:05:59.605Z,1.50
2018-07-01T06:06:59.560Z,1.60
2018-07-01T06:07:59.576Z,1.30
2018-07-01T06:08:59.592Z,1.50
2018-07-01T06:09:59.573Z,1.30
2018-07-01T06:10:59.595Z,1.30
2018-07-01T06:11:59.622Z,1.30
2018-07-01T06:12:59.631Z,1.30
2018-07-01T06:13:59.675Z,1.40
2018-07-01T06:14:59.622Z,1.40
2018-07-01T06:15:59.630Z,1.30
2018-07-01T06:16:59.650Z,1.40
2018-07-01T06:17:59.666Z,1.50
2018-07-01T06:18:59.715Z,1.40
2018-07-01T06:19:59.710Z,1.30
2018-07-01T06:20:59.680Z,1.50
2018-07-01T06:21:59.717Z,1.40
2018-07-01T06:22:59.735Z,1.40
2018-07-01T06:24:00.637Z,1.20
2018-07-01T06:24:59.768Z,1.40
2018-07-01T06:25:59.760Z,1.50
2018-07-01T06:26:59.726Z,1.50
2018-07-01T06:27:59.752Z,1.40
2018-07-01T06:28:59.776Z,1.40
2018-07-01T06:29:59.768Z,1.40
2018-07-01T06:30:59.773Z,1.30
2018-07-01T06:31:59.814Z,1.60
2018-07-01T06:32:59.813Z,1.40
2018-07-01T06:33:59.792Z,1.40
2018-07-01T06:34:59.805Z,1.30
2018-07-01T06:35:59.822Z,1.20
2018-07-01T06:36:59.819Z,1.20
2018-07-01T06:37:59.829Z,1.40
2018-07-01T06:38:59.842Z,1.40
2018-07-01T06:39:59.850Z,1.10
2018-07-01T06:40:59.869Z,1.30
2018-07-01T06:41:59.986Z,1.10
2018-07-01T06:42:59.913Z,1.10
2018-07-01T06:43:59.893Z,1.30
2018-07-01T06:44:59.931Z,1.30
2018-07-01T06:45:59.991Z,1.30
2018-07-01T06:46:59.949Z,1.30
2018-07-01T06:48:00.025Z,1.10
2018-07-01T06:48:59.994Z,1.20
2018-07-01T06:49:59.983Z,1.10
2018-07-01T06:50:59.970Z,1.20
2018-07-01T06:51:59.996Z,1.20
2018-07-01T06:53:00.014Z,1.30
2018-07-01T06:54:00.013Z,1.50
2018-07-01T06:55:00.051Z,1.40
2018-07-01T06:56:00.047Z,1.10
2018-07-01T06:57:00.046Z,1.20
2018-07-01T06:58:00.085Z,1.20
2018-07-01T06:59:00.064Z,1.20
2018-07-01T07:00:00.101Z,1.20
2018-07-01T07:01:00.093Z,1.20
2018-07-01T07:02:00.661Z,1.10
2018-07-01T07:03:00.114Z,1.20
2018-07-01T07:04:00.131Z,1.30
2018-07-01T07:05:00.132Z,1.10
2018-07-01T07:06:00.145Z,1.40
2018-07-01T07:07:00.149Z,1.10
2018-07-01T07:08:00.184Z,1.20
2018-07-01T07:09:00.178Z,1.20
2018-07-01T07:10:00.235Z,1.30
2018-07-01T07:11:00.283Z,1.10
2018-07-01T07:12:01.163Z,1.10
2018-07-01T07:13:00.270Z,1.10
2018-07-01T07:14:00.281Z,1.10
2018-07-01T07:15:00.310Z,1.10
2018-07-01T07:16:00.267Z,1.10
2018-07-01T07:17:00.295Z,1.10
2018-07-01T07:18:00.311Z,1.10
2018-07-01T07:19:00.316Z,1.00
2018-07-01T07:20:00.337Z,1.20
2018-07-01T07:21:00.342Z,1.10
2018-07-01T07:22:00.347Z,1.00
2018-07-01T07:23:00.365Z,1.00
2018-07-01T07:24:00.381Z,1.10
2018-07-01T07:25:00.384Z,1.00
2018-07-01T07:26:00.424Z,1.00
2018-07-01T07:27:00.429Z,1.10
2018-07-01T07:28:00.420Z,1.30
2018-07-01T07:29:00.476Z,0.90
2018-07-01T07:30:00.508Z,1.10
2018-07-01T07:31:00.478Z,1.10
2018-07-01T07:32:00.658Z,1.00
2018-07-01T07:33:00.520Z,1.00
2018-07-01T07:34:00.524Z,1.20
2018-07-01T07:35:00.524Z,1.20
2018-07-01T07:36:00.561Z,1.00
2018-07-01T07:37:00.607Z,1.10
2018-07-01T07:38:00.552Z,1.10
2018-07-01T07:39:00.578Z,1.30
2018-07-01T07:40:00.596Z,1.20
2018-07-01T07:41:00.623Z,1.20
2018-07-01T07:42:00.617Z,1.20
2018-07-01T07:43:00.636Z,0.90
2018-07-01T07:44:00.652Z,1.10
2018-07-01T07:45:00.827Z,1.00
2018-07-01T07:46:00.691Z,1.00
2018-07-01T07:47:00.704Z,1.10
2018-07-01T07:48:00.727Z,1.00
2018-07-01T07:49:00.722Z,1.00
2018-07-01T07:50:00.742Z,1.60
2018-07-01T07:51:00.746Z,1.20
2018-07-01T07:52:00.776Z,1.10
2018-07-01T07:53:00.771Z,1.10
2018-07-01T07:54:00.894Z,1.00
2018-07-01T07:55:00.861Z,1.20
2018-07-01T07:56:00.812Z,1.00
2018-07-01T07:57:00.931Z,1.20
2018-07-01T07:58:00.849Z,1.20
2018-07-01T07:59:00.873Z,1.00
2018-07-01T08:00:00.875Z,1.30
2018-07-01T08:01:00.885Z,1.10
2018-07-01T08:02:00.935Z,1.10
2018-07-01T08:03:00.928Z,1.20
2018-07-01T08:04:01.108Z,1.10
2018-07-01T08:05:00.982Z,1.30
2018-07-01T08:06:01.003Z,1.00
2018-07-01T08:07:00.995Z,1.00
2018-07-01T08:08:01.006Z,1.10
2018-07-01T08:09:01.007Z,1.20
2018-07-01T08:10:01.031Z,1.20
2018-07-01T08:11:01.037Z,1.20
2018-07-01T08:12:01.068Z,1.10
2018-07-01T08:13:01.130Z,1.20
2018-07-01T08:14:01.094Z,1.20
2018-07-01T08:15:01.105Z,1.10
2018-07-01T08:16:01.109Z,1.20
2018-07-01T08:17:01.134Z,1.00
2018-07-01T08:18:01.168Z,1.10
2018-07-01T08:19:01.180Z,1.20
2018-07-01T08:20:01.185Z,1.00
2018-07-01T08:21:01.215Z,1.20
2018-07-01T08:22:01.251Z,1.10
2018-07-01T08:23:01.229Z,1.20
2018-07-01T08:24:01.371Z,1.20
2018-07-01T08:25:01.269Z,1.50
2018-07-01T08:26:01.273Z,1.00
2018-07-01T08:27:01.488Z,1.10
2018-07-01T08:28:01.331Z,1.00
2018-07-01T08:29:01.360Z,1.20
2018-07-01T08:30:01.365Z,1.20
2018-07-01T08:31:01.405Z,1.10
2018-07-01T08:32:01.389Z,1.10
2018-07-01T08:33:01.406Z,1.30
2018-07-01T08:34:01.426Z,1.20
2018-07-01T08:35:01.427Z,1.40
2018-07-01T08:36:01.449Z,1.30
2018-07-01T08:37:01.495Z,1.00
2018-07-01T08:38:01.482Z,1.20
2018-07-01T08:39:01.530Z,1.00
2018-07-01T08:40:01.572Z,1.00
2018-07-01T08:41:01.546Z,0.90
2018-07-01T08:42:01.531Z,1.10
2018-07-01T08:43:01.586Z,1.30
2018-07-01T08:44:01.570Z,1.20
2018-07-01T08:45:01.607Z,1.20
2018-07-01T08:46:02.237Z,1.20
2018-07-01T08:47:01.613Z,1.00
2018-07-01T08:48:01.640Z,1.10
2018-07-01T08:49:01.655Z,0.90
2018-07-01T08:50:01.676Z,1.10
2018-07-01T08:51:01.718Z,1.10
2018-07-01T08:52:01.761Z,1.10
2018-07-01T08:53:01.757Z,1.00
2018-07-01T08:54:01.816Z,0.90
2018-07-01T08:55:01.808Z,1.00
2018-07-01T08:56:01.806Z,1.20
2018-07-01T08:57:01.799Z,1.10
2018-07-01T08:58:01.874Z,1.10
2018-07-01T08:59:01.828Z,1.10
2018-07-01T09:00:01.878Z,1.50
2018-07-01T09:01:01.928Z,1.20
2018-07-01T09:02:01.920Z,1.20
2018-07-01T09:03:01.931Z,1.10
2018-07-01T09:04:01.919Z,1.00
2018-07-01T09:05:01.958Z,1.00
2018-07-01T09:06:02.095Z,1.00
2018-07-01T09:07:02.015Z,1.00
2018-07-01T09:08:01.987Z,1.00
2018-07-01T09:09:02.039Z,1.20
2018-07-01T09:10:02.055Z,1.10
2018-07-01T09:11:02.054Z,1.20
2018-07-01T09:12:02.088Z,1.10
2018-07-01T09:13:02.090Z,1.10
2018-07-01T09:14:02.147Z,1.60
2018-07-01T09:15:02.121Z,1.20
2018-07-01T09:16:02.294Z,1.10
2018-07-01T09:17:02.262Z,1.00
2018-07-01T09:18:02.236Z,1.10
2018-07-01T09:19:02.201Z,1.10
2018-07-01T09:20:02.204Z,1.00
2018-07-01T09:21:02.244Z,1.00
2018-07-01T09:22:02.256Z,1.40
2018-07-01T09:23:02.284Z,1.00
2018-07-01T09:24:02.274Z,1.20
2018-07-01T09:25:02.326Z,1.10
2018-07-01T09:26:02.351Z,1.10
2018-07-01T09:27:02.330Z,1.10
2018-07-01T09:28:02.361Z,1.20
2018-07-01T09:29:02.397Z,1.10
2018-07-01T09:30:02.431Z,1.10
2018-07-01T09:31:02.425Z,1.10
2018-07-01T09:32:02.466Z,0.90
2018-07-01T09:33:02.470Z,0.90
2018-07-01T09:34:02.487Z,1.10
2018-07-01T09:35:02.497Z,0.90
2018-07-01T09:36:02.516Z,0.90
2018-07-01T09:37:02.593Z,0.90
2018-07-01T09:38:02.565Z,1.10
2018-07-01T09:39:02.598Z,1.10
2018-07-01T09:40:02.597Z,0.80
2018-07-01T09:41:02.692Z,1.00
2018-07-01T09:42:02.658Z,1.00
2018-07-01T09:43:02.649Z,0.90
2018-07-01T09:44:02.709Z,1.00
2018-07-01T09:45:02.704Z,1.00
2018-07-01T09:46:02.770Z,1.00
2018-07-01T09:47:02.754Z,0.90
2018-07-01T09:48:02.879Z,0.90
2018-07-01T09:49:02.764Z,1.10
2018-07-01T09:50:02.834Z,1.10
2018-07-01T09:51:02.813Z,0.90
2018-07-01T09:52:02.827Z,1.00
2018-07-01T09:53:02.842Z,1.10
2018-07-01T09:54:02.877Z,1.40
2018-07-01T09:55:02.936Z,1.00
2018-07-01T09:56:02.930Z,1.10
2018-07-01T09:57:02.975Z,1.40
2018-07-01T09:58:02.952Z,1.10
2018-07-01T09:59:02.982Z,1.10
2018-07-01T10:00:02.981Z,1.10
2018-07-01T10:01:03.007Z,1.00
2018-07-01T10:02:03.033Z,1.10
2018-07-01T10:03:03.038Z,1.20
2018-07-01T10:04:03.241Z,1.10
2018-07-01T10:05:03.786Z,1.10
2018-07-01T10:06:03.135Z,0.90
2018-07-01T10:07:03.188Z,1.00
2018-07-01T10:08:03.145Z,1.10
2018-07-01T10:09:03.191Z,1.00
2018-07-01T10:10:03.214Z,1.10
2018-07-01T10:11:03.222Z,1.10
2018-07-01T10:12:03.286Z,1.00
2018-07-01T10:13:03.304Z,1.00
2018-07-01T10:14:03.334Z,1.00
2018-07-01T10:15:04.293Z,1.30
2018-07-01T10:16:03.361Z,1.00
2018-07-01T10:17:03.330Z,1.10
2018-07-01T10:18:03.374Z,0.90
2018-07-01T10:19:03.388Z,1.00
2018-07-01T10:20:03.396Z,1.00
2018-07-01T10:21:03.449Z,1.10
2018-07-01T10:22:03.445Z,1.00
2018-07-01T10:23:03.477Z,1.00
2018-07-01T10:24:03.482Z,1.00
2018-07-01T10:25:03.504Z,1.30
2018-07-01T10:26:03.509Z,0.90
2018-07-01T10:27:03.563Z,1.10
2018-07-01T10:28:03.584Z,1.10
2018-07-01T10:29:03.598Z,1.10
2018-07-01T10:30:03.626Z,1.10
2018-07-01T10:31:03.632Z,1.10
2018-07-01T10:32:03.660Z,1.30
2018-07-01T10:33:03.671Z,1.00
2018-07-01T10:34:03.678Z,1.30
2018-07-01T10:35:03.724Z,1.00
2018-07-01T10:36:03.725Z,1.20
2018-07-01T10:37:03.723Z,1.00
2018-07-01T10:38:03.734Z,1.30
2018-07-01T10:39:03.762Z,1.10
2018-07-01T10:40:03.819Z,1.20
2018-07-01T10:41:03.801Z,1.10
2018-07-01T10:42:03.802Z,1.00
2018-07-01T10:43:03.865Z,0.90
2018-07-01T10:44:03.863Z,1.20
2018-07-01T10:45:03.860Z,1.20
2018-07-01T10:46:03.889Z,1.10
2018-07-01T10:47:03.935Z,1.00
2018-07-01T10:48:03.891Z,1.10
2018-07-01T10:49:05.831Z,1.30
2018-07-01T10:50:03.932Z,1.30
2018-07-01T10:51:03.961Z,0.90
2018-07-01T10:52:03.965Z,1.00
2018-07-01T10:53:03.991Z,1.10
2018-07-01T10:54:03.980Z,1.00
2018-07-01T10:55:04.012Z,1.10
2018-07-01T10:56:04.007Z,1.10
2018-07-01T10:57:04.158Z,1.00
2018-07-01T10:58:04.026Z,1.10
2018-07-01T10:59:04.079Z,1.20
2018-07-01T11:00:04.058Z,1.20
2018-07-01T11:01:04.055Z,1.10
2018-07-01T11:02:04.069Z,1.10
2018-07-01T11:03:04.082Z,1.30
2018-07-01T11:04:04.084Z,1.10
2018-07-01T11:05:04.098Z,1.20
2018-07-01T11:06:04.132Z,1.20
2018-07-01T11:07:04.111Z,1.20
2018-07-01T11:08:04.121Z,1.10
2018-07-01T11:09:04.159Z,1.30
2018-07-01T11:10:04.165Z,1.20
2018-07-01T11:11:04.169Z,1.20
2018-07-01T11:12:04.169Z,1.40
2018-07-01T11:13:04.192Z,1.20
2018-07-01T11:14:04.182Z,1.50
2018-07-01T11:15:04.194Z,1.10
2018-07-01T11:16:04.193Z,1.40
2018-07-01T11:17:04.205Z,1.10
2018-07-01T11:18:04.214Z,1.10
2018-07-01T11:19:04.244Z,1.10
2018-07-01T11:20:04.231Z,1.10
2018-07-01T11:21:04.244Z,1.40
2018-07-01T11:22:04.246Z,1.30
2018-07-01T11:23:04.269Z,1.10
2018-07-01T11:24:04.295Z,1.20
2018-07-01T11:25:04.301Z,1.30
2018-07-01T11:26:04.299Z,1.20
2018-07-01T11:27:04.492Z,1.10
2018-07-01T11:28:04.317Z,1.10
2018-07-01T11:29:04.297Z,1.20
2018-07-01T11:30:04.324Z,1.20
2018-07-01T11:31:04.306Z,1.00
2018-07-01T11:32:04.332Z,1.10
2018-07-01T11:33:04.340Z,1.30
2018-07-01T11:34:04.332Z,1.40
2018-07-01T11:35:04.386Z,1.10
2018-07-01T11:36:04.345Z,1.00
2018-07-01T11:37:04.358Z,1.30
2018-07-01T11:38:04.460Z,1.40
2018-07-01T11:39:04.373Z,1.20
2018-07-01T11:40:04.388Z,1.50
2018-07-01T11:41:04.390Z,1.30
2018-07-01T11:42:04.391Z,1.20
2018-07-01T11:43:04.413Z,1.30
2018-07-01T11:44:04.407Z,1.10
2018-07-01T11:45:04.405Z,1.00
2018-07-01T11:46:04.429Z,1.10
2018-07-01T11:47:04.422Z,1.00
2018-07-01T11:48:04.509Z,0.90
2018-07-01T11:49:04.448Z,1.00
2018-07-01T11:50:04.446Z,0.90
2018-07-01T11:51:04.475Z,1.20
2018-07-01T11:52:04.481Z,1.10
2018-07-01T11:53:04.460Z,1.10
2018-07-01T11:54:04.491Z,1.10
2018-07-01T11:55:04.476Z,1.30
2018-07-01T11:56:04.502Z,1.00
2018-07-01T11:57:04.503Z,1.30
2018-07-01T11:58:04.607Z,1.30
2018-07-01T11:59:04.504Z,1.30
2018-07-01T12:00:04.591Z,1.10
2018-07-01T12:01:04.527Z,1.00
2018-07-01T12:02:04.528Z,1.30
2018-07-01T12:03:11.524Z,0.90
2018-07-01T12:04:04.547Z,1.20
2018-07-01T12:05:16.657Z,1.20
2018-07-01T12:06:04.570Z,1.10
2018-07-01T12:07:04.589Z,1.10
2018-07-01T12:08:04.569Z,1.20
2018-07-01T12:09:04.608Z,1.20
2018-07-01T12:10:04.576Z,1.20
2018-07-01T12:11:04.636Z,1.10
2018-07-01T12:12:04.676Z,0.90
2018-07-01T12:13:04.588Z,1.00
2018-07-01T12:14:04.625Z,1.00
2018-07-01T12:15:04.625Z,1.20
2018-07-01T12:16:04.632Z,1.10
2018-07-01T12:17:04.621Z,1.40
2018-07-01T12:18:04.618Z,1.20
2018-07-01T12:19:04.626Z,1.10
2018-07-01T12:20:04.653Z,1.00
2018-07-01T12:21:04.652Z,2.00
2018-07-01T12:22:04.660Z,1.20
2018-07-01T12:23:04.649Z,1.10
2018-07-01T12:24:04.685Z,1.30
2018-07-01T12:25:04.660Z,1.00
2018-07-01T12:26:04.691Z,0.90
2018-07-01T12:27:04.681Z,1.10
2018-07-01T12:28:04.700Z,1.10
2018-07-01T12:29:04.694Z,1.20
2018-07-01T12:30:04.701Z,1.10
2018-07-01T12:31:04.704Z,1.10
2018-07-01T12:32:04.710Z,1.00
2018-07-01T12:33:04.717Z,1.20
2018-07-01T12:34:04.751Z,1.20
2018-07-01T12:35:04.725Z,1.10
2018-07-01T12:36:04.734Z,1.10
2018-07-01T12:37:04.765Z,1.20
2018-07-01T12:38:04.778Z,1.10
2018-07-01T12:39:04.899Z,1.10
2018-07-01T12:40:04.863Z,1.30
2018-07-01T12:41:04.889Z,1.10
2018-07-01T12:42:04.876Z,1.20
2018-07-01T12:43:04.771Z,1.00
2018-07-01T12:44:04.867Z,1.10
2018-07-01T12:45:04.808Z,1.10
2018-07-01T12:46:04.789Z,1.10
2018-07-01T12:47:04.797Z,1.30
2018-07-01T12:48:04.815Z,1.10
2018-07-01T12:49:04.865Z,1.10
2018-07-01T12:54:41.157Z,1.20
2018-07-01T12:55:41.227Z,1.00
2018-07-01T12:57:34.684Z,1.10
2018-07-01T12:58:34.710Z,1.00
2018-07-01T13:00:28.221Z,1.20
2018-07-01T13:01:28.201Z,1.10
2018-07-01T13:02:28.361Z,1.20
2018-07-01T13:03:28.190Z,1.40
2018-07-01T13:04:28.211Z,1.30
2018-07-01T13:05:28.219Z,1.50
2018-07-01T13:06:28.201Z,1.20
2018-07-01T13:07:28.217Z,1.30
2018-07-01T13:08:28.249Z,1.40
2018-07-01T13:09:28.227Z,1.30
2018-07-01T13:10:28.248Z,1.10
2018-07-01T13:11:28.244Z,1.10
2018-07-01T13:12:28.286Z,1.10
2018-07-01T13:13:29.039Z,1.30
2018-07-01T13:14:28.260Z,1.50
2018-07-01T13:15:28.305Z,1.40
2018-07-01T13:16:28.291Z,1.40
2018-07-01T13:17:28.298Z,1.50
2018-07-01T13:18:28.316Z,1.50
2018-07-01T13:19:28.316Z,1.30
2018-07-01T13:20:28.317Z,1.40
2018-07-01T13:21:28.322Z,1.10
2018-07-01T13:22:28.345Z,1.10
2018-07-01T13:23:28.328Z,1.40
2018-07-01T13:24:28.355Z,1.20
2018-07-01T13:25:29.048Z,1.10